createdAt,value
2018-06-25T00:00:09.972Z,1016.17
2018-06-25T00:01:09.961Z,1016.17
2018-06-25T00:02:09.974Z,1016.22
2018-06-25T00:03:09.938Z,1016.22
2018-06-25T00:04:09.926Z,1016.23
2018-06-25T00:05:09.915Z,1016.22
2018-06-25T00:06:09.920Z,1016.22
2018-06-25T00:07:09.916Z,1016.22
2018-06-25T00:08:09.883Z,1016.25
2018-06-25T00:09:09.874Z,1016.27
2018-06-25T00:10:09.861Z,1016.30
2018-06-25T00:11:09.848Z,1016.27
2018-06-25T00:12:09.861Z,1016.26
2018-06-25T00:13:09.826Z,1016.18
2018-06-25T00:14:09.815Z,1016.15
2018-06-25T00:15:09.807Z,1016.12
2018-06-25T00:16:09.792Z,1016.04
2018-06-25T00:17:09.808Z,1016.09
2018-06-25T00:18:09.771Z,1016.06
2018-06-25T00:19:09.758Z,1016.07
2018-06-25T00:20:09.749Z,1016.10
2018-06-25T00:21:09.738Z,1016.14
2018-06-25T00:22:09.753Z,1016.10
2018-06-25T00:23:09.715Z,1016.12
2018-06-25T00:24:09.704Z,1016.09
2018-06-25T00:25:09.692Z,1016.11
2018-06-25T00:26:09.682Z,1016.10
2018-06-25T00:27:09.697Z,1016.09
2018-06-25T00:28:09.659Z,1016.07
2018-06-25T00:29:09.649Z,1016.05
2018-06-25T00:30:09.637Z,1016.00
2018-06-25T00:31:09.627Z,1016.09
2018-06-25T00:32:09.641Z,1016.10
2018-06-25T00:33:09.605Z,1016.13
2018-06-25T00:34:09.593Z,1016.14
2018-06-25T00:35:09.582Z,1016.11
2018-06-25T00:36:09.572Z,1016.08
2018-06-25T00:37:09.585Z,1016.09
2018-06-25T00:38:09.550Z,1016.05
2018-06-25T00:39:09.539Z,1016.04
2018-06-25T00:40:09.526Z,1016.01
2018-06-25T00:41:09.516Z,1016.03
2018-06-25T00:42:09.557Z,1016.03
2018-06-25T00:43:09.494Z,1016.02
2018-06-25T00:44:09.482Z,1016.01
2018-06-25T00:45:09.472Z,1016.03
2018-06-25T00:46:09.464Z,1016.01
2018-06-25T00:47:09.473Z,1016.01
2018-06-25T00:48:09.488Z,1016.03
2018-06-25T00:49:09.427Z,1016.07
2018-06-25T00:50:09.416Z,1016.06
2018-06-25T00:51:09.404Z,1016.02
2018-06-25T00:52:09.418Z,1016.08
2018-06-25T00:53:09.382Z,1016.05
2018-06-25T00:54:09.372Z,1016.05
2018-06-25T00:55:09.359Z,1016.04
2018-06-25T00:56:09.349Z,1016.08
2018-06-25T00:57:09.362Z,1016.08
2018-06-25T00:58:09.326Z,1016.13
2018-06-25T00:59:09.316Z,1016.10
2018-06-25T01:00:09.306Z,1016.16
2018-06-25T01:01:09.294Z,1016.15
2018-06-25T01:02:09.306Z,1016.16
2018-06-25T01:03:09.272Z,1016.19
2018-06-25T01:04:09.261Z,1016.17
2018-06-25T01:05:09.248Z,1016.14
2018-06-25T01:06:09.240Z,1016.18
2018-06-25T01:07:09.227Z,1016.20
2018-06-25T01:08:09.240Z,1016.24
2018-06-25T01:09:09.204Z,1016.19
2018-06-25T01:10:09.194Z,1016.24
2018-06-25T01:11:09.181Z,1016.28
2018-06-25T01:12:09.173Z,1016.28
2018-06-25T01:13:09.185Z,1016.24
2018-06-25T01:14:09.149Z,1016.22
2018-06-25T01:15:09.137Z,1016.18
2018-06-25T01:16:09.127Z,1016.20
2018-06-25T01:17:09.120Z,1016.20
2018-06-25T01:18:09.128Z,1016.18
2018-06-25T01:19:09.094Z,1016.20
2018-06-25T01:20:09.081Z,1016.26
2018-06-25T01:21:09.072Z,1016.27
2018-06-25T01:22:09.060Z,1016.29
2018-06-25T01:23:09.076Z,1016.28
2018-06-25T01:24:09.038Z,1016.23
2018-06-25T01:25:09.025Z,1016.26
2018-06-25T01:26:09.015Z,1016.26
2018-06-25T01:27:09.003Z,1016.27
2018-06-25T01:28:09.017Z,1016.23
2018-06-25T01:29:08.981Z,1016.23
2018-06-25T01:30:08.973Z,1016.23
2018-06-25T01:31:08.959Z,1016.21
2018-06-25T01:32:08.947Z,1016.27
2018-06-25T01:33:08.963Z,1016.25
2018-06-25T01:34:08.926Z,1016.22
2018-06-25T01:35:08.914Z,1016.20
2018-06-25T01:36:08.904Z,1016.16
2018-06-25T01:37:08.906Z,1016.16
2018-06-25T01:38:08.908Z,1016.12
2018-06-25T01:39:08.874Z,1016.15
2018-06-25T01:40:08.863Z,1016.09
2018-06-25T01:41:08.847Z,1016.05
2018-06-25T01:42:08.838Z,1016.12
2018-06-25T01:43:08.852Z,1016.10
2018-06-25T01:44:08.818Z,1016.09
2018-06-25T01:45:08.805Z,1016.08
2018-06-25T01:46:08.793Z,1016.12
2018-06-25T01:47:08.782Z,1016.14
2018-06-25T01:48:08.801Z,1016.16
2018-06-25T01:49:08.761Z,1016.14
2018-06-25T01:50:08.749Z,1016.20
2018-06-25T01:51:08.742Z,1016.17
2018-06-25T01:52:08.726Z,1016.20
2018-06-25T01:53:08.741Z,1016.21
2018-06-25T01:54:08.705Z,1016.20
2018-06-25T01:55:08.693Z,1016.18
2018-06-25T01:56:08.683Z,1016.14
2018-06-25T01:57:08.698Z,1016.15
2018-06-25T01:58:08.685Z,1016.10
2018-06-25T01:59:08.650Z,1016.11
2018-06-25T02:00:08.638Z,1016.13
2018-06-25T02:01:08.628Z,1016.11
2018-06-25T02:02:08.617Z,1016.10
2018-06-25T02:03:08.631Z,1016.15
2018-06-25T02:04:08.593Z,1016.13
2018-06-25T02:05:08.587Z,1016.16
2018-06-25T02:06:08.572Z,1016.11
2018-06-25T02:07:08.562Z,1016.15
2018-06-25T02:08:08.552Z,1016.16
2018-06-25T02:09:08.566Z,1016.10
2018-06-25T02:10:08.527Z,1016.04
2018-06-25T02:11:08.517Z,1016.06
2018-06-25T02:12:08.506Z,1016.00
2018-06-25T02:13:08.495Z,1016.01
2018-06-25T02:14:08.507Z,1015.97
2018-06-25T02:15:08.474Z,1016.01
2018-06-25T02:16:08.462Z,1016.07
2018-06-25T02:17:08.451Z,1016.07
2018-06-25T02:18:08.441Z,1016.14
2018-06-25T02:19:08.453Z,1016.14
2018-06-25T02:20:08.416Z,1016.19
2018-06-25T02:21:08.407Z,1016.19
2018-06-25T02:22:08.395Z,1016.20
2018-06-25T02:23:08.385Z,1016.18
2018-06-25T02:24:08.398Z,1016.21
2018-06-25T02:25:08.363Z,1016.19
2018-06-25T02:26:08.352Z,1016.18
2018-06-25T02:27:08.339Z,1016.08
2018-06-25T02:28:08.328Z,1016.11
2018-06-25T02:29:08.342Z,1016.07
2018-06-25T02:30:08.309Z,1016.02
2018-06-25T02:31:08.296Z,1016.12
2018-06-25T02:32:08.286Z,1016.15
2018-06-25T02:33:08.273Z,1016.18
2018-06-25T02:34:08.285Z,1016.16
2018-06-25T02:35:08.253Z,1016.19
2018-06-25T02:36:08.240Z,1016.18
2018-06-25T02:37:08.230Z,1016.20
2018-06-25T02:38:08.217Z,1016.20
2018-06-25T02:39:08.239Z,1016.26
2018-06-25T02:40:08.196Z,1016.23
2018-06-25T02:41:08.189Z,1016.20
2018-06-25T02:42:08.174Z,1016.19
2018-06-25T02:43:08.161Z,1016.19
2018-06-25T02:44:08.178Z,1016.18
2018-06-25T02:45:08.144Z,1016.19
2018-06-25T02:46:08.131Z,1016.24
2018-06-25T02:47:08.119Z,1016.21
2018-06-25T02:48:08.106Z,1016.19
2018-06-25T02:49:08.119Z,1016.22
2018-06-25T02:50:08.085Z,1016.27
2018-06-25T02:51:08.075Z,1016.26
2018-06-25T02:52:08.063Z,1016.27
2018-06-25T02:53:08.050Z,1016.26
2018-06-25T02:54:08.065Z,1016.21
2018-06-25T02:55:08.030Z,1016.22
2018-06-25T02:56:08.017Z,1016.24
2018-06-25T02:57:08.007Z,1016.28
2018-06-25T02:58:07.996Z,1016.27
2018-06-25T02:59:08.069Z,1016.22
2018-06-25T03:00:07.973Z,1016.21
2018-06-25T03:01:07.963Z,1016.25
2018-06-25T03:02:07.954Z,1016.26
2018-06-25T03:03:07.940Z,1016.20
2018-06-25T03:04:07.952Z,1016.23
2018-06-25T03:05:07.919Z,1016.26
2018-06-25T03:06:07.906Z,1016.22
2018-06-25T03:07:07.897Z,1016.23
2018-06-25T03:08:07.889Z,1016.25
2018-06-25T03:09:07.897Z,1016.19
2018-06-25T03:10:07.861Z,1016.23
2018-06-25T03:11:07.850Z,1016.21
2018-06-25T03:12:07.841Z,1016.22
2018-06-25T03:13:07.827Z,1016.26
2018-06-25T03:14:07.843Z,1016.26
2018-06-25T03:15:07.807Z,1016.24
2018-06-25T03:16:07.794Z,1016.24
2018-06-25T03:17:07.789Z,1016.22
2018-06-25T03:18:07.773Z,1016.21
2018-06-25T03:19:07.787Z,1016.21
2018-06-25T03:20:07.749Z,1016.24
2018-06-25T03:21:07.741Z,1016.23
2018-06-25T03:22:07.728Z,1016.23
2018-06-25T03:23:07.767Z,1016.24
2018-06-25T03:24:07.730Z,1016.27
2018-06-25T03:25:07.697Z,1016.26
2018-06-25T03:26:07.684Z,1016.25
2018-06-25T03:27:07.673Z,1016.21
2018-06-25T03:28:07.661Z,1016.23
2018-06-25T03:29:07.674Z,1016.22
2018-06-25T03:30:07.641Z,1016.22
2018-06-25T03:31:07.628Z,1016.23
2018-06-25T03:32:07.617Z,1016.24
2018-06-25T03:33:07.605Z,1016.25
2018-06-25T03:34:07.621Z,1016.23
2018-06-25T03:35:07.590Z,1016.28
2018-06-25T03:36:07.573Z,1016.27
2018-06-25T03:37:07.563Z,1016.28
2018-06-25T03:38:07.550Z,1016.28
2018-06-25T03:39:07.562Z,1016.28
2018-06-25T03:40:07.528Z,1016.29
2018-06-25T03:41:07.518Z,1016.30
2018-06-25T03:42:07.508Z,1016.31
2018-06-25T03:43:07.495Z,1016.29
2018-06-25T03:44:07.487Z,1016.31
2018-06-25T03:45:07.497Z,1016.27
2018-06-25T03:46:07.464Z,1016.29
2018-06-25T03:47:07.451Z,1016.34
2018-06-25T03:48:07.442Z,1016.32
2018-06-25T03:49:07.453Z,1016.38
2018-06-25T03:50:07.417Z,1016.37
2018-06-25T03:51:07.407Z,1016.36
2018-06-25T03:52:07.398Z,1016.45
2018-06-25T03:53:07.385Z,1016.45
2018-06-25T03:54:07.376Z,1016.45
2018-06-25T03:55:07.386Z,1016.44
2018-06-25T03:56:07.351Z,1016.49
2018-06-25T03:57:07.342Z,1016.50
2018-06-25T03:58:07.328Z,1016.47
2018-06-25T03:59:07.319Z,1016.52
2018-06-25T04:00:07.330Z,1016.49
2018-06-25T04:01:07.356Z,1016.50
2018-06-25T04:02:07.287Z,1016.45
2018-06-25T04:03:07.273Z,1016.44
2018-06-25T04:04:07.264Z,1016.45
2018-06-25T04:05:07.276Z,1016.43
2018-06-25T04:06:07.240Z,1016.44
2018-06-25T04:07:07.229Z,1016.46
2018-06-25T04:08:07.220Z,1016.43
2018-06-25T04:09:07.209Z,1016.41
2018-06-25T04:10:07.220Z,1016.39
2018-06-25T04:11:07.187Z,1016.44
2018-06-25T04:12:07.178Z,1016.43
2018-06-25T04:13:07.166Z,1016.47
2018-06-25T04:14:07.153Z,1016.46
2018-06-25T04:15:07.165Z,1016.51
2018-06-25T04:16:07.129Z,1016.53
2018-06-25T04:17:07.120Z,1016.48
2018-06-25T04:18:07.107Z,1016.56
2018-06-25T04:19:07.100Z,1016.49
2018-06-25T04:20:07.112Z,1016.51
2018-06-25T04:21:07.075Z,1016.56
2018-06-25T04:22:07.064Z,1016.57
2018-06-25T04:23:07.053Z,1016.61
2018-06-25T04:24:07.045Z,1016.62
2018-06-25T04:25:07.057Z,1016.61
2018-06-25T04:26:07.024Z,1016.65
2018-06-25T04:27:07.010Z,1016.64
2018-06-25T04:28:06.998Z,1016.65
2018-06-25T04:29:06.990Z,1016.68
2018-06-25T04:30:06.999Z,1016.71
2018-06-25T04:31:06.964Z,1016.72
2018-06-25T04:32:06.953Z,1016.68
2018-06-25T04:33:06.943Z,1016.72
2018-06-25T04:34:06.937Z,1016.73
2018-06-25T04:35:06.945Z,1016.73
2018-06-25T04:36:06.908Z,1016.75
2018-06-25T04:37:06.898Z,1016.78
2018-06-25T04:38:06.889Z,1016.78
2018-06-25T04:39:06.879Z,1016.80
2018-06-25T04:40:06.891Z,1016.78
2018-06-25T04:41:06.878Z,1016.80
2018-06-25T04:42:06.854Z,1016.78
2018-06-25T04:43:06.841Z,1016.79
2018-06-25T04:44:06.821Z,1016.76
2018-06-25T04:45:06.858Z,1016.80
2018-06-25T04:46:06.799Z,1016.78
2018-06-25T04:47:06.789Z,1016.83
2018-06-25T04:48:06.778Z,1016.83
2018-06-25T04:49:06.765Z,1016.76
2018-06-25T04:50:06.780Z,1016.83
2018-06-25T04:51:06.744Z,1016.81
2018-06-25T04:52:06.732Z,1016.84
2018-06-25T04:53:06.720Z,1016.81
2018-06-25T04:54:06.709Z,1016.85
2018-06-25T04:55:06.724Z,1016.86
2018-06-25T04:56:06.700Z,1016.84
2018-06-25T04:57:06.677Z,1016.86
2018-06-25T04:58:06.667Z,1016.86
2018-06-25T04:59:06.654Z,1016.88
2018-06-25T05:00:06.667Z,1016.89
2018-06-25T05:01:06.695Z,1016.88
2018-06-25T05:02:06.621Z,1016.89
2018-06-25T05:03:06.609Z,1016.93
2018-06-25T05:04:06.599Z,1016.91
2018-06-25T05:05:06.613Z,1016.91
2018-06-25T05:06:06.577Z,1016.91
2018-06-25T05:07:06.566Z,1016.89
2018-06-25T05:08:06.559Z,1016.96
2018-06-25T05:09:06.544Z,1016.93
2018-06-25T05:10:06.556Z,1016.92
2018-06-25T05:11:06.521Z,1016.94
2018-06-25T05:12:06.511Z,1016.96
2018-06-25T05:13:06.500Z,1016.92
2018-06-25T05:14:06.488Z,1016.93
2018-06-25T05:15:06.501Z,1016.94
2018-06-25T05:16:06.467Z,1016.97
2018-06-25T05:17:06.456Z,1017.00
2018-06-25T05:18:06.444Z,1016.97
2018-06-25T05:19:06.432Z,1016.94
2018-06-25T05:20:06.446Z,1016.97
2018-06-25T05:21:06.411Z,1017.00
2018-06-25T05:22:06.403Z,1017.03
2018-06-25T05:23:06.392Z,1017.04
2018-06-25T05:24:06.379Z,1017.04
2018-06-25T05:25:06.391Z,1017.07
2018-06-25T05:26:06.357Z,1017.02
2018-06-25T05:27:06.346Z,1017.01
2018-06-25T05:28:06.332Z,1017.04
2018-06-25T05:29:06.355Z,1017.05
2018-06-25T05:30:06.334Z,1017.07
2018-06-25T05:31:06.301Z,1017.06
2018-06-25T05:32:06.292Z,1017.08
2018-06-25T05:33:06.279Z,1017.03
2018-06-25T05:34:06.266Z,1017.06
2018-06-25T05:35:06.256Z,1017.07
2018-06-25T05:36:06.270Z,1017.03
2018-06-25T05:37:06.232Z,1017.07
2018-06-25T05:38:06.220Z,1017.04
2018-06-25T05:39:06.210Z,1017.06
2018-06-25T05:40:06.201Z,1017.03
2018-06-25T05:41:06.215Z,1017.06
2018-06-25T05:42:06.183Z,1017.05
2018-06-25T05:43:06.176Z,1017.06
2018-06-25T05:44:06.156Z,1017.07
2018-06-25T05:45:06.146Z,1017.09
2018-06-25T05:46:06.158Z,1017.08
2018-06-25T05:47:06.122Z,1017.11
2018-06-25T05:48:06.110Z,1017.13
2018-06-25T05:49:06.101Z,1017.11
2018-06-25T05:50:06.091Z,1017.15
2018-06-25T05:51:06.103Z,1017.16
2018-06-25T05:52:06.067Z,1017.13
2018-06-25T05:53:06.055Z,1017.18
2018-06-25T05:54:06.047Z,1017.16
2018-06-25T05:55:06.034Z,1017.18
2018-06-25T05:56:06.047Z,1017.16
2018-06-25T05:57:06.013Z,1017.15
2018-06-25T05:58:06.001Z,1017.20
2018-06-25T05:59:05.990Z,1017.19
2018-06-25T06:00:05.979Z,1017.19
2018-06-25T06:01:05.993Z,1017.21
2018-06-25T06:02:05.958Z,1017.21
2018-06-25T06:03:05.947Z,1017.19
2018-06-25T06:04:05.933Z,1017.21
2018-06-25T06:05:05.924Z,1017.20
2018-06-25T06:06:05.936Z,1017.20
2018-06-25T06:07:05.900Z,1017.24
2018-06-25T06:08:05.893Z,1017.25
2018-06-25T06:09:05.919Z,1017.30
2018-06-25T06:10:05.868Z,1017.29
2018-06-25T06:11:05.883Z,1017.28
2018-06-25T06:12:05.847Z,1017.31
2018-06-25T06:13:05.835Z,1017.27
2018-06-25T06:14:05.823Z,1017.32
2018-06-25T06:15:05.813Z,1017.35
2018-06-25T06:16:05.826Z,1017.34
2018-06-25T06:17:05.793Z,1017.34
2018-06-25T06:18:05.783Z,1017.44
2018-06-25T06:19:05.770Z,1017.39
2018-06-25T06:20:05.758Z,1017.36
2018-06-25T06:21:05.771Z,1017.38
2018-06-25T06:22:05.736Z,1017.30
2018-06-25T06:23:05.725Z,1017.31
2018-06-25T06:24:05.713Z,1017.37
2018-06-25T06:25:05.704Z,1017.40
2018-06-25T06:26:05.720Z,1017.40
2018-06-25T06:27:05.680Z,1017.37
2018-06-25T06:28:05.681Z,1017.42
2018-06-25T06:29:20.073Z,1017.65
2018-06-25T06:30:20.061Z,1017.66
2018-06-25T06:31:20.074Z,1017.66
2018-06-25T06:32:20.036Z,1017.66
2018-06-25T06:33:20.026Z,1017.67
2018-06-25T06:34:20.015Z,1017.66
2018-06-25T06:35:20.003Z,1017.66
2018-06-25T06:36:20.019Z,1017.64
2018-06-25T06:37:19.981Z,1017.67
2018-06-25T06:38:19.970Z,1017.69
2018-06-25T06:39:19.961Z,1017.67
2018-06-25T06:40:19.951Z,1017.71
2018-06-25T06:41:19.964Z,1017.72
2018-06-25T06:42:19.935Z,1017.75
2018-06-25T06:43:19.915Z,1017.77
2018-06-25T06:44:19.908Z,1017.80
2018-06-25T06:45:19.936Z,1017.79
2018-06-25T06:46:19.906Z,1017.67
2018-06-25T06:47:19.889Z,1017.74
2018-06-25T06:48:19.861Z,1017.78
2018-06-25T06:49:19.849Z,1017.78
2018-06-25T06:50:19.928Z,1017.78
2018-06-25T06:51:19.853Z,1017.78
2018-06-25T06:52:19.818Z,1017.85
2018-06-25T06:53:19.806Z,1017.85
2018-06-25T06:54:19.796Z,1017.83
2018-06-25T06:55:19.795Z,1017.91
2018-06-25T06:56:19.800Z,1017.86
2018-06-25T06:57:19.767Z,1017.85
2018-06-25T06:58:19.750Z,1017.88
2018-06-25T06:59:19.738Z,1017.89
2018-06-25T07:00:19.728Z,1017.89
2018-06-25T07:01:19.741Z,1017.87
2018-06-25T07:02:19.706Z,1017.88
2018-06-25T07:03:19.696Z,1017.91
2018-06-25T07:04:19.737Z,1017.91
2018-06-25T07:05:19.690Z,1017.90
2018-06-25T07:06:19.684Z,1017.92
2018-06-25T07:07:19.669Z,1017.87
2018-06-25T07:08:19.649Z,1017.92
2018-06-25T07:09:19.791Z,1017.93
2018-06-25T07:10:19.673Z,1017.85
2018-06-25T07:11:19.654Z,1017.90
2018-06-25T07:12:19.593Z,1017.89
2018-06-25T07:13:19.619Z,1017.85
2018-06-25T07:14:19.608Z,1017.89
2018-06-25T07:15:19.577Z,1017.88
2018-06-25T07:16:19.592Z,1017.91
2018-06-25T07:17:19.742Z,1017.91
2018-06-25T07:18:19.536Z,1017.93
2018-06-25T07:19:19.516Z,1017.99
2018-06-25T07:20:19.514Z,1017.98
2018-06-25T07:21:19.532Z,1017.94
2018-06-25T07:22:19.484Z,1017.93
2018-06-25T07:23:19.556Z,1017.98
2018-06-25T07:24:19.534Z,1017.99
2018-06-25T07:25:19.506Z,1018.05
2018-06-25T07:26:19.463Z,1018.04
2018-06-25T07:27:19.468Z,1018.02
2018-06-25T07:28:19.425Z,1018.09
2018-06-25T07:29:19.477Z,1018.03
2018-06-25T07:30:19.477Z,1018.05
2018-06-25T07:31:19.447Z,1018.06
2018-06-25T07:32:19.475Z,1018.03
2018-06-25T07:33:19.360Z,1018.01
2018-06-25T07:34:19.353Z,1017.99
2018-06-25T07:35:19.472Z,1018.04
2018-06-25T07:36:19.333Z,1018.07
2018-06-25T07:37:19.347Z,1018.05
2018-06-25T07:38:19.333Z,1018.04
2018-06-25T07:39:19.396Z,1018.04
2018-06-25T07:40:19.485Z,1018.02
2018-06-25T07:41:19.295Z,1018.06
2018-06-25T07:42:19.314Z,1018.05
2018-06-25T07:43:19.391Z,1018.07
2018-06-25T07:44:19.272Z,1018.03
2018-06-25T07:45:19.323Z,1018.07
2018-06-25T07:46:19.220Z,1018.04
2018-06-25T07:47:19.386Z,1018.11
2018-06-25T07:48:19.195Z,1018.12
2018-06-25T07:49:19.182Z,1018.09
2018-06-25T07:50:19.172Z,1018.07
2018-06-25T07:51:19.168Z,1018.06
2018-06-25T07:52:19.173Z,1018.20
2018-06-25T07:53:19.182Z,1018.15
2018-06-25T07:54:19.174Z,1018.14
2018-06-25T07:55:19.114Z,1018.16
2018-06-25T07:56:19.107Z,1018.19
2018-06-25T07:57:19.119Z,1018.17
2018-06-25T07:58:19.084Z,1018.16
2018-06-25T07:59:19.097Z,1018.15
2018-06-25T08:00:19.061Z,1018.10
2018-06-25T08:01:19.049Z,1018.15
2018-06-25T08:02:19.066Z,1018.11
2018-06-25T08:03:19.026Z,1018.18
2018-06-25T08:04:19.018Z,1018.13
2018-06-25T08:05:19.052Z,1018.15
2018-06-25T08:06:18.992Z,1018.14
2018-06-25T08:07:19.006Z,1018.13
2018-06-25T08:08:18.973Z,1018.12
2018-06-25T08:09:18.960Z,1018.22
2018-06-25T08:10:19.018Z,1018.21
2018-06-25T08:11:18.969Z,1018.17
2018-06-25T08:12:18.951Z,1018.19
2018-06-25T08:13:18.915Z,1018.12
2018-06-25T08:14:18.905Z,1018.18
2018-06-25T08:15:18.893Z,1018.20
2018-06-25T08:16:18.919Z,1018.24
2018-06-25T08:17:18.956Z,1018.23
2018-06-25T08:18:18.879Z,1018.21
2018-06-25T08:19:18.851Z,1018.24
2018-06-25T08:20:18.899Z,1018.22
2018-06-25T08:21:18.846Z,1018.27
2018-06-25T08:22:18.837Z,1018.30
2018-06-25T08:23:18.836Z,1018.27
2018-06-25T08:24:18.794Z,1018.32
2018-06-25T08:25:18.782Z,1018.34
2018-06-25T08:26:18.774Z,1018.36
2018-06-25T08:27:18.791Z,1018.29
2018-06-25T08:28:18.747Z,1018.33
2018-06-25T08:29:18.736Z,1018.32
2018-06-25T08:30:18.727Z,1018.32
2018-06-25T08:31:18.740Z,1018.32
2018-06-25T08:32:18.742Z,1018.30
2018-06-25T08:33:18.701Z,1018.29
2018-06-25T08:34:18.822Z,1018.34
2018-06-25T08:35:18.676Z,1018.33
2018-06-25T08:36:18.661Z,1018.31
2018-06-25T08:37:18.769Z,1018.31
2018-06-25T08:38:18.635Z,1018.32
2018-06-25T08:39:18.631Z,1018.34
2018-06-25T08:40:18.682Z,1018.33
2018-06-25T08:41:18.646Z,1018.35
2018-06-25T08:42:18.624Z,1018.37
2018-06-25T08:43:18.638Z,1018.35
2018-06-25T08:44:18.599Z,1018.33
2018-06-25T08:45:18.561Z,1018.37
2018-06-25T08:46:18.575Z,1018.38
2018-06-25T08:47:18.561Z,1018.35
2018-06-25T08:48:18.526Z,1018.34
2018-06-25T08:49:18.514Z,1018.34
2018-06-25T08:50:18.504Z,1018.40
2018-06-25T08:51:18.492Z,1018.38
2018-06-25T08:52:18.519Z,1018.51
2018-06-25T08:53:18.496Z,1018.42
2018-06-25T08:54:18.469Z,1018.47
2018-06-25T08:55:18.471Z,1018.43
2018-06-25T08:56:18.439Z,1018.50
2018-06-25T08:57:18.509Z,1018.50
2018-06-25T08:58:18.428Z,1018.46
2018-06-25T08:59:18.473Z,1018.46
2018-06-25T09:00:18.393Z,1018.45
2018-06-25T09:01:18.381Z,1018.48
2018-06-25T09:02:18.401Z,1018.43
2018-06-25T09:03:18.394Z,1018.43
2018-06-25T09:04:18.361Z,1018.40
2018-06-25T09:05:18.433Z,1018.38
2018-06-25T09:06:18.353Z,1018.40
2018-06-25T09:07:18.339Z,1018.45
2018-06-25T09:08:18.310Z,1018.47
2018-06-25T09:09:18.320Z,1018.44
2018-06-25T09:10:18.283Z,1018.46
2018-06-25T09:11:18.272Z,1018.45
2018-06-25T09:12:18.303Z,1018.43
2018-06-25T09:13:18.259Z,1018.52
2018-06-25T09:14:18.237Z,1018.45
2018-06-25T09:15:18.276Z,1018.46
2018-06-25T09:16:18.217Z,1018.48
2018-06-25T09:17:18.248Z,1018.48
2018-06-25T09:18:18.208Z,1018.50
2018-06-25T09:19:18.185Z,1018.51
2018-06-25T09:20:18.175Z,1018.55
2018-06-25T09:21:18.220Z,1018.56
2018-06-25T09:22:18.176Z,1018.60
2018-06-25T09:23:18.146Z,1018.57
2018-06-25T09:24:18.133Z,1018.64
2018-06-25T09:25:18.119Z,1018.70
2018-06-25T09:26:18.148Z,1018.63
2018-06-25T09:27:18.094Z,1018.63
2018-06-25T09:28:18.109Z,1018.62
2018-06-25T09:29:18.072Z,1018.57
2018-06-25T09:30:18.059Z,1018.62
2018-06-25T09:31:18.049Z,1018.63
2018-06-25T09:32:18.066Z,1018.69
2018-06-25T09:33:18.051Z,1018.60
2018-06-25T09:34:18.014Z,1018.64
2018-06-25T09:35:18.062Z,1018.61
2018-06-25T09:36:18.003Z,1018.63
2018-06-25T09:37:17.983Z,1018.62
2018-06-25T09:38:17.999Z,1018.61
2018-06-25T09:39:18.825Z,1018.49
2018-06-25T09:40:17.954Z,1018.55
2018-06-25T09:41:18.048Z,1018.61
2018-06-25T09:42:17.929Z,1018.57
2018-06-25T09:43:17.945Z,1018.55
2018-06-25T09:44:17.906Z,1018.54
2018-06-25T09:45:17.892Z,1018.53
2018-06-25T09:46:17.885Z,1018.55
2018-06-25T09:47:17.887Z,1018.59
2018-06-25T09:48:17.885Z,1018.58
2018-06-25T09:49:17.859Z,1018.61
2018-06-25T09:50:17.838Z,1018.59
2018-06-25T09:51:17.839Z,1018.60
2018-06-25T09:52:17.815Z,1018.58
2018-06-25T09:53:17.832Z,1018.58
2018-06-25T09:54:17.795Z,1018.60
2018-06-25T09:55:17.804Z,1018.66
2018-06-25T09:56:17.773Z,1018.60
2018-06-25T09:57:17.775Z,1018.57
2018-06-25T09:58:17.773Z,1018.63
2018-06-25T09:59:17.737Z,1018.64
2018-06-25T10:00:17.725Z,1018.60
2018-06-25T10:01:17.716Z,1018.61
2018-06-25T10:02:17.704Z,1018.62
2018-06-25T10:03:17.720Z,1018.65
2018-06-25T10:04:17.683Z,1018.61
2018-06-25T10:05:17.676Z,1018.72
2018-06-25T10:06:17.661Z,1018.65
2018-06-25T10:07:17.648Z,1018.70
2018-06-25T10:08:17.661Z,1018.68
2018-06-25T10:09:17.627Z,1018.63
2018-06-25T10:10:17.618Z,1018.66
2018-06-25T10:11:17.605Z,1018.66
2018-06-25T10:12:17.594Z,1018.65
2018-06-25T10:13:17.608Z,1018.62
2018-06-25T10:14:17.571Z,1018.62
2018-06-25T10:15:17.562Z,1018.65
2018-06-25T10:16:17.549Z,1018.66
2018-06-25T10:17:17.538Z,1018.68
2018-06-25T10:18:17.552Z,1018.72
2018-06-25T10:19:17.517Z,1018.62
2018-06-25T10:20:17.506Z,1018.63
2018-06-25T10:21:17.536Z,1018.64
2018-06-25T10:22:17.549Z,1018.67
2018-06-25T10:23:17.503Z,1018.67
2018-06-25T10:24:17.460Z,1018.68
2018-06-25T10:25:17.464Z,1018.62
2018-06-25T10:26:17.438Z,1018.70
2018-06-25T10:27:17.435Z,1018.70
2018-06-25T10:28:17.451Z,1018.68
2018-06-25T10:29:17.407Z,1018.78
2018-06-25T10:30:17.394Z,1018.73
2018-06-25T10:31:17.384Z,1018.71
2018-06-25T10:32:17.371Z,1018.72
2018-06-25T10:33:17.392Z,1018.69
2018-06-25T10:34:17.349Z,1018.69
2018-06-25T10:35:17.343Z,1018.72
2018-06-25T10:36:17.355Z,1018.68
2018-06-25T10:37:17.315Z,1018.71
2018-06-25T10:38:17.330Z,1018.74
2018-06-25T10:39:17.293Z,1018.77
2018-06-25T10:40:17.325Z,1018.80
2018-06-25T10:41:17.272Z,1018.77
2018-06-25T10:42:17.350Z,1018.76
2018-06-25T10:43:17.283Z,1018.78
2018-06-25T10:44:17.245Z,1018.76
2018-06-25T10:45:17.228Z,1018.73
2018-06-25T10:46:17.218Z,1018.78
2018-06-25T10:47:17.214Z,1018.80
2018-06-25T10:48:17.227Z,1018.82
2018-06-25T10:49:17.184Z,1018.76
2018-06-25T10:50:17.188Z,1018.70
2018-06-25T10:51:17.171Z,1018.70
2018-06-25T10:52:17.151Z,1018.71
2018-06-25T10:53:17.164Z,1018.66
2018-06-25T10:54:17.128Z,1018.69
2018-06-25T10:55:17.116Z,1018.68
2018-06-25T10:56:17.123Z,1018.65
2018-06-25T10:57:17.096Z,1018.73
2018-06-25T10:58:17.109Z,1018.74
2018-06-25T10:59:17.072Z,1018.73
2018-06-25T11:00:17.172Z,1018.78
2018-06-25T11:01:17.132Z,1018.79
2018-06-25T11:02:17.038Z,1018.74
2018-06-25T11:03:17.063Z,1018.90
2018-06-25T11:04:17.033Z,1018.73
2018-06-25T11:05:17.006Z,1018.70
2018-06-25T11:06:16.995Z,1019.08
2018-06-25T11:07:17.225Z,1019.07
2018-06-25T11:08:16.976Z,1018.75
2018-06-25T11:09:16.993Z,1019.31
2018-06-25T11:10:16.956Z,1018.72
2018-06-25T11:11:17.837Z,1019.34
2018-06-25T11:12:16.931Z,1018.97
2018-06-25T11:13:16.930Z,1019.38
2018-06-25T11:14:16.935Z,1019.34
2018-06-25T11:15:16.901Z,1018.97
2018-06-25T11:16:16.891Z,1018.66
2018-06-25T11:17:16.889Z,1018.59
2018-06-25T11:18:16.871Z,1018.64
2018-06-25T11:19:16.886Z,1018.76
2018-06-25T11:20:16.860Z,1018.68
2018-06-25T11:21:16.840Z,1018.71
2018-06-25T11:22:16.829Z,1018.67
2018-06-25T11:23:16.836Z,1018.63
2018-06-25T11:24:16.828Z,1018.65
2018-06-25T11:25:16.795Z,1018.59
2018-06-25T11:26:16.786Z,1018.64
2018-06-25T11:27:16.856Z,1018.61
2018-06-25T11:28:16.764Z,1018.61
2018-06-25T11:29:16.798Z,1018.53
2018-06-25T11:30:16.741Z,1018.59
2018-06-25T11:31:16.779Z,1018.59
2018-06-25T11:32:16.781Z,1018.59
2018-06-25T11:33:16.710Z,1018.60
2018-06-25T11:34:16.797Z,1018.59
2018-06-25T11:35:16.700Z,1018.56
2018-06-25T11:36:16.686Z,1018.63
2018-06-25T11:37:16.666Z,1018.57
2018-06-25T11:38:16.658Z,1018.56
2018-06-25T11:39:16.673Z,1018.59
2018-06-25T11:40:16.651Z,1018.57
2018-06-25T11:41:16.657Z,1018.56
2018-06-25T11:42:16.678Z,1018.62
2018-06-25T11:43:16.601Z,1018.62
2018-06-25T11:44:16.613Z,1018.65
2018-06-25T11:45:16.603Z,1018.66
2018-06-25T11:46:16.568Z,1018.61
2018-06-25T11:47:16.558Z,1018.66
2018-06-25T11:48:16.583Z,1018.69
2018-06-25T11:49:16.560Z,1018.66
2018-06-25T11:50:16.525Z,1018.65
2018-06-25T11:51:16.515Z,1018.66
2018-06-25T11:52:16.509Z,1018.68
2018-06-25T11:53:16.510Z,1018.60
2018-06-25T11:54:16.506Z,1018.60
2018-06-25T11:55:16.475Z,1018.62
2018-06-25T11:56:16.466Z,1018.68
2018-06-25T11:57:16.451Z,1018.64
2018-06-25T11:58:16.465Z,1018.64
2018-06-25T11:59:16.452Z,1018.70
2018-06-25T12:00:16.504Z,1018.64
2018-06-25T12:01:16.414Z,1018.75
2018-06-25T12:02:16.394Z,1018.65
2018-06-25T12:03:16.571Z,1018.65
2018-06-25T12:04:16.397Z,1018.61
2018-06-25T12:05:16.367Z,1018.68